Airfield :
LOGIN :

Register | Disclaimer

   EN    FR    IT 

 










Legend :    VFR   Marginal VFR   IFR   Intensive IFR   Very Intensive IFR
Visi :
Ceiling :
>= 8 km
>= 3000ft
5 to 8 km
1000 to 3000 ft
1500m to 5 km
500 to 1000 ft
800 to 1500m
200 to 500 ft
< 800m
< 200 ft
Symbols :   Thunderstorms  Fog  Heavy snow  Heavy precipitations  Wind > 20 kt
SIGMETs :     Misc.  Thunderstorms  Icing  Turbulence  Mountain Waves  Volcanic Ashes






- Airport Elevation : 239 ft
- IATA code : VRN


LIPX - Villafranca Int. Verona

CURRENT METAR :
  • 231050Z 14003KT 4000 BR NSC 16/12 Q1015

EXPIRED METARs :
  • 231020Z 26003KT 230V320 5000 BR NSC 16/12 Q1023
  • 230950Z 25003KT 4000 BR NSC 15/12 Q1015
  • 230920Z 20004KT 170V240 4000 BR NSC 15/12 Q1023
  • 230850Z 21004KT 160V240 4000 BR NSC 14/12 Q1023
  • 230820Z 29003KT 260V320 4000 BR NSC 13/12 Q1023

TAF TAF LIPX
Valid from the 23 at 06:00 until the 24 at 06:00 UTC


230500Z 2306/2406 VRB05KT 2000 BR SCT030
TEMPO 2306/2308 0800 BCFG BKN002
BECMG 2307/2309 6000 NSC
BECMG 2318/2320 3000 BR
TEMPO 2400/2406 0800 BCFG BKN002



MET'MAP, your aeronautical weather chart ! - Copyright ORBIFLY December 2007 - Disclaimer

ORBIFLY MET'MAP TEAM :

Programming & Development : Alexandra Zaïnal
Concept & original design : Baudouin d'Aumeries
Assistance for programming : Marc-Olivier Méhu
Technical & hardware support : Manuel Goepfert

Contact : metmap@orbifly.com




SOURCES & CREDITS :

   NOAA